Time,TemperatureF,DewpointF,PressureIn,WindDirection,WindDirectionDegrees,WindSpeedMPH,WindSpeedGustMPH,Humidity,HourlyPrecipIn,Conditions,Clouds,dailyrainin,SoftwareType,DateUTC
2013-09-16 00:09:00,56.1,53.5,30.20,NNE,33,0.0,0.0,91,0.00,,,0.00,Wunderground v.1.15,2013-09-16 05:09:00,
2013-09-16 00:15:00,56.0,53.4,30.20,NNE,33,0.0,0.0,91,0.00,,,0.00,Wunderground v.1.15,2013-09-16 05:15:00,
2013-09-16 00:20:00,55.8,53.5,30.20,NNE,33,0.0,0.0,92,0.00,,,0.00,Wunderground v.1.15,2013-09-16 05:20:00,
2013-09-16 00:25:00,55.8,53.5,30.20,NNE,33,0.0,0.0,92,0.00,,,0.00,Wunderground v.1.15,2013-09-16 05:25:00,
2013-09-16 00:30:00,55.7,53.4,30.20,NNE,33,0.0,0.0,92,0.00,,,0.00,Wunderground v.1.15,2013-09-16 05:30:00,
2013-09-16 00:35:00,55.7,53.4,30.20,NNE,33,0.0,0.0,92,0.00,,,0.00,Wunderground v.1.15,2013-09-16 05:35:00,
2013-09-16 00:40:00,55.6,53.3,30.20,NNE,33,0.0,0.0,92,0.00,,,0.00,Wunderground v.1.15,2013-09-16 05:40:00,
2013-09-16 00:45:00,55.6,53.6,30.20,NNE,33,0.0,0.0,93,0.00,,,0.00,Wunderground v.1.15,2013-09-16 05:45:00,
2013-09-16 00:50:00,55.6,53.6,30.21,NNE,33,0.0,0.0,93,0.00,,,0.00,Wunderground v.1.15,2013-09-16 05:50:00,
2013-09-16 00:59:00,55.4,53.4,30.21,NNE,33,0.0,0.0,93,0.00,,,0.00,Wunderground v.1.15,2013-09-16 05:59:00,
2013-09-16 01:05:00,55.4,53.4,30.21,NNE,33,0.0,0.0,93,0.00,,,0.00,Wunderground v.1.15,2013-09-16 06:05:00,
2013-09-16 01:10:00,55.3,53.3,30.21,NNE,33,0.0,0.0,93,0.00,,,0.00,Wunderground v.1.15,2013-09-16 06:10:00,
2013-09-16 01:20:00,55.1,53.1,30.21,NNE,33,0.0,0.0,93,0.00,,,0.00,Wunderground v.1.15,2013-09-16 06:20:00,
2013-09-16 01:25:00,54.9,53.2,30.21,NNE,33,0.0,0.0,94,0.00,,,0.00,Wunderground v.1.15,2013-09-16 06:25:00,
2013-09-16 01:30:00,54.7,53.0,30.22,NNE,33,0.0,0.0,94,0.00,,,0.00,Wunderground v.1.15,2013-09-16 06:30:00,
2013-09-16 01:35:00,54.6,52.9,30.21,NNE,33,0.0,0.0,94,0.00,,,0.00,Wunderground v.1.15,2013-09-16 06:35:00,
2013-09-16 01:40:00,54.6,52.9,30.21,NNE,33,0.0,0.0,94,0.00,,,0.00,Wunderground v.1.15,2013-09-16 06:40:00,
2013-09-16 01:45:00,54.5,52.8,30.21,NNE,33,0.0,0.0,94,0.00,,,0.00,Wunderground v.1.15,2013-09-16 06:45:00,
2013-09-16 01:50:00,54.4,52.7,30.21,NNE,33,0.0,0.0,94,0.00,,,0.00,Wunderground v.1.15,2013-09-16 06:50:00,
2013-09-16 01:59:00,54.2,52.5,30.22,NNE,33,0.0,0.0,94,0.00,,,0.00,Wunderground v.1.15,2013-09-16 06:59:00,
2013-09-16 02:05:00,54.1,52.4,30.22,NNE,33,0.0,0.0,94,0.00,,,0.00,Wunderground v.1.15,2013-09-16 07:05:00,
2013-09-16 02:10:00,54.0,52.3,30.22,NNE,33,0.0,0.0,94,0.00,,,0.00,Wunderground v.1.15,2013-09-16 07:10:00,
2013-09-16 02:15:00,53.9,52.2,30.22,NNE,33,0.0,0.0,94,0.00,,,0.00,Wunderground v.1.15,2013-09-16 07:15:00,
2013-09-16 02:20:00,53.8,52.1,30.22,NNE,33,0.0,0.0,94,0.00,,,0.00,Wunderground v.1.15,2013-09-16 07:20:00,
2013-09-16 02:30:00,53.7,52.3,30.22,NNE,33,0.0,0.0,95,0.00,,,0.00,Wunderground v.1.15,2013-09-16 07:30:00,
2013-09-16 02:35:00,53.7,52.0,30.22,NNE,33,0.0,0.0,94,0.00,,,0.00,Wunderground v.1.15,2013-09-16 07:35:00,
2013-09-16 02:40:00,53.7,52.0,30.22,NNE,33,0.0,0.0,94,0.00,,,0.00,Wunderground v.1.15,2013-09-16 07:40:00,
2013-09-16 02:45:00,53.6,52.2,30.22,NNE,33,0.0,0.0,95,0.00,,,0.00,Wunderground v.1.15,2013-09-16 07:45:00,
2013-09-16 02:50:00,53.6,52.2,30.22,NNE,33,0.0,0.0,95,0.00,,,0.00,Wunderground v.1.15,2013-09-16 07:50:00,
2013-09-16 03:00:00,53.4,52.0,30.22,NNE,33,0.0,0.0,95,0.00,,,0.00,Wunderground v.1.15,2013-09-16 08:00:00,
2013-09-16 03:05:00,53.2,51.8,30.22,NNE,33,0.0,0.0,95,0.00,,,0.00,Wunderground v.1.15,2013-09-16 08:05:00,
2013-09-16 03:10:00,53.2,51.8,30.22,NNE,33,0.0,0.0,95,0.00,,,0.00,Wunderground v.1.15,2013-09-16 08:10:00,
2013-09-16 03:15:00,53.1,51.7,30.22,NNE,33,0.0,0.0,95,0.00,,,0.00,Wunderground v.1.15,2013-09-16 08:15:00,
2013-09-16 03:20:00,53.0,51.6,30.23,NNE,33,0.0,0.0,95,0.00,,,0.00,Wunderground v.1.15,2013-09-16 08:20:00,
2013-09-16 03:25:00,52.9,51.5,30.22,NNE,33,0.0,0.0,95,0.00,,,0.00,Wunderground v.1.15,2013-09-16 08:25:00,
2013-09-16 03:34:00,52.8,51.4,30.22,NNE,33,0.0,0.0,95,0.00,,,0.00,Wunderground v.1.15,2013-09-16 08:34:00,
2013-09-16 03:44:00,52.7,51.3,30.23,NNE,33,0.0,0.0,95,0.00,,,0.00,Wunderground v.1.15,2013-09-16 08:44:00,
2013-09-16 03:50:00,52.6,51.2,30.23,NNE,17,0.0,0.0,95,0.00,,,0.00,Wunderground v.1.15,2013-09-16 08:50:00,
2013-09-16 03:55:00,52.5,51.1,30.23,NNE,17,0.0,0.0,95,0.00,,,0.00,Wunderground v.1.15,2013-09-16 08:55:00,
2013-09-16 04:00:00,52.5,51.1,30.23,NNE,17,0.0,0.0,95,0.00,,,0.00,Wunderground v.1.15,2013-09-16 09:00:00,
2013-09-16 04:05:00,52.5,51.1,30.24,NNE,17,0.0,0.0,95,0.00,,,0.00,Wunderground v.1.15,2013-09-16 09:05:00,
2013-09-16 04:10:00,52.5,51.1,30.24,NNE,17,0.0,0.0,95,0.00,,,0.00,Wunderground v.1.15,2013-09-16 09:10:00,
2013-09-16 04:15:00,52.4,51.0,30.24,NNE,17,0.0,0.0,95,0.00,,,0.00,Wunderground v.1.15,2013-09-16 09:15:00,
2013-09-16 04:20:00,52.4,51.0,30.24,NNE,17,0.0,0.0,95,0.00,,,0.00,Wunderground v.1.15,2013-09-16 09:20:00,
2013-09-16 04:29:00,52.7,51.6,30.24,NNE,17,0.0,0.0,96,0.00,,,0.00,Wunderground v.1.15,2013-09-16 09:29:00,
2013-09-16 04:34:00,52.8,51.7,30.24,NNE,17,0.0,0.0,96,0.00,,,0.00,Wunderground v.1.15,2013-09-16 09:34:00,
2013-09-16 04:40:00,53.0,51.9,30.24,NNE,17,0.0,0.0,96,0.00,,,0.00,Wunderground v.1.15,2013-09-16 09:40:00,
2013-09-16 04:45:00,53.0,51.9,30.24,NNE,17,0.0,0.0,96,0.00,,,0.00,Wunderground v.1.15,2013-09-16 09:45:00,
2013-09-16 04:55:00,52.8,51.7,30.24,NNE,17,0.0,0.0,96,0.00,,,0.00,Wunderground v.1.15,2013-09-16 09:55:00,
2013-09-16 05:00:00,52.8,51.7,30.24,NNE,17,0.0,0.0,96,0.00,,,0.00,Wunderground v.1.15,2013-09-16 10:00:00,
2013-09-16 05:05:00,52.8,51.7,30.24,NNE,17,0.0,0.0,96,0.00,,,0.00,Wunderground v.1.15,2013-09-16 10:05:00,
2013-09-16 05:10:00,52.8,51.7,30.24,NNE,17,0.0,0.0,96,0.00,,,0.00,Wunderground v.1.15,2013-09-16 10:10:00,
2013-09-16 05:15:00,52.8,51.7,30.25,NNE,17,0.0,0.0,96,0.00,,,0.00,Wunderground v.1.15,2013-09-16 10:15:00,
2013-09-16 05:24:00,53.0,51.9,30.25,NNE,19,0.0,0.0,96,0.00,,,0.00,Wunderground v.1.15,2013-09-16 10:24:00,
2013-09-16 05:30:00,53.2,52.1,30.25,NNE,22,0.0,0.0,96,0.00,,,0.00,Wunderground v.1.15,2013-09-16 10:30:00,
2013-09-16 05:35:00,53.4,52.3,30.25,NNE,22,0.0,0.0,96,0.00,,,0.00,Wunderground v.1.15,2013-09-16 10:35:00,
2013-09-16 05:40:00,53.5,52.4,30.25,NNE,23,0.0,0.0,96,0.00,,,0.00,Wunderground v.1.15,2013-09-16 10:40:00,
2013-09-16 05:45:00,53.6,52.5,30.25,NNE,22,0.0,0.0,96,0.00,,,0.00,Wunderground v.1.15,2013-09-16 10:45:00,
2013-09-16 05:50:00,53.7,52.6,30.25,East,89,0.0,0.0,96,0.00,,,0.00,Wunderground v.1.15,2013-09-16 10:50:00,
2013-09-16 05:55:00,53.7,52.6,30.25,East,88,0.0,0.0,96,0.00,,,0.00,Wunderground v.1.15,2013-09-16 10:55:00,
2013-09-16 06:00:00,53.6,52.5,30.25,East,88,0.0,0.0,96,0.00,,,0.00,Wunderground v.1.15,2013-09-16 11:00:00,
2013-09-16 06:05:00,53.6,52.5,30.26,East,89,0.0,0.0,96,0.00,,,0.00,Wunderground v.1.15,2013-09-16 11:05:00,
2013-09-16 06:10:00,53.6,52.5,30.26,East,88,0.0,0.0,96,0.00,,,0.00,Wunderground v.1.15,2013-09-16 11:10:00,
2013-09-16 06:19:00,53.5,52.4,30.26,East,82,0.0,0.0,96,0.00,,,0.00,Wunderground v.1.15,2013-09-16 11:19:00,
2013-09-16 06:25:00,53.5,52.4,30.26,East,82,0.0,0.0,96,0.00,,,0.00,Wunderground v.1.15,2013-09-16 11:25:00,
2013-09-16 06:30:00,53.4,52.3,30.26,East,82,0.0,0.0,96,0.00,,,0.00,Wunderground v.1.15,2013-09-16 11:30:00,
2013-09-16 06:35:00,53.4,52.3,30.27,East,82,0.0,0.0,96,0.00,,,0.00,Wunderground v.1.15,2013-09-16 11:35:00,
2013-09-16 06:40:00,53.2,52.1,30.27,East,82,0.0,0.0,96,0.00,,,0.00,Wunderground v.1.15,2013-09-16 11:40:00,
2013-09-16 06:45:00,53.1,52.0,30.27,East,82,0.0,0.0,96,0.00,,,0.00,Wunderground v.1.15,2013-09-16 11:45:00,
2013-09-16 06:50:00,53.1,52.0,30.27,East,82,0.0,0.0,96,0.00,,,0.00,Wunderground v.1.15,2013-09-16 11:50:00,
2013-09-16 06:55:00,53.1,52.0,30.28,East,83,0.0,0.0,96,0.00,,,0.00,Wunderground v.1.15,2013-09-16 11:55:00,
2013-09-16 07:00:00,53.3,52.2,30.28,East,87,0.0,0.0,96,0.00,,,0.00,Wunderground v.1.15,2013-09-16 12:00:00,
2013-09-16 07:05:00,53.4,52.3,30.28,East,90,0.0,0.0,96,0.00,,,0.00,Wunderground v.1.15,2013-09-16 12:05:00,
2013-09-16 07:15:00,53.7,52.6,30.28,East,94,0.0,0.0,96,0.00,,,0.00,Wunderground v.1.15,2013-09-16 12:15:00,
2013-09-16 07:24:00,54.0,53.2,30.29,East,87,0.0,0.0,97,0.00,,,0.00,Wunderground v.1.15,2013-09-16 12:24:00,
2013-09-16 07:29:00,54.1,53.0,30.29,East,87,0.0,0.0,96,0.00,,,0.00,Wunderground v.1.15,2013-09-16 12:29:00,
2013-09-16 07:35:00,54.3,53.2,30.29,East,92,0.0,0.0,96,0.00,,,0.00,Wunderground v.1.15,2013-09-16 12:35:00,
2013-09-16 07:40:00,54.4,53.6,30.29,East,98,0.0,0.0,97,0.00,,,0.00,Wunderground v.1.15,2013-09-16 12:40:00,
2013-09-16 07:45:00,54.6,53.8,30.29,ESE,106,0.0,0.0,97,0.00,,,0.00,Wunderground v.1.15,2013-09-16 12:45:00,
2013-09-16 07:50:00,54.6,53.8,30.30,East,97,0.0,0.0,97,0.00,,,0.00,Wunderground v.1.15,2013-09-16 12:50:00,
2013-09-16 07:55:00,54.8,53.7,30.30,East,96,0.0,1.0,96,0.00,,,0.00,Wunderground v.1.15,2013-09-16 12:55:00,
2013-09-16 08:00:00,54.9,53.8,30.30,East,92,0.0,0.0,96,0.00,,,0.01,Wunderground v.1.15,2013-09-16 13:00:00,
2013-09-16 08:09:00,55.1,54.0,30.30,East,94,0.0,0.0,96,0.00,,,0.01,Wunderground v.1.15,2013-09-16 13:09:00,
2013-09-16 08:14:00,55.3,54.2,30.30,East,91,0.0,0.0,96,0.00,,,0.01,Wunderground v.1.15,2013-09-16 13:14:00,
2013-09-16 08:20:00,55.2,54.1,30.30,East,81,0.0,0.0,96,0.00,,,0.01,Wunderground v.1.15,2013-09-16 13:20:00,
2013-09-16 08:30:00,55.5,54.1,30.30,ESE,103,0.0,0.0,95,0.00,,,0.01,Wunderground v.1.15,2013-09-16 13:30:00,
2013-09-16 08:35:00,55.6,54.2,30.30,East,92,0.0,0.0,95,0.00,,,0.01,Wunderground v.1.15,2013-09-16 13:35:00,
2013-09-16 08:40:00,55.7,54.0,30.30,East,94,0.0,0.0,94,0.00,,,0.01,Wunderground v.1.15,2013-09-16 13:40:00,
2013-09-16 08:45:00,55.9,54.2,30.30,East,101,0.0,0.0,94,0.00,,,0.01,Wunderground v.1.15,2013-09-16 13:45:00,
2013-09-16 08:50:00,55.8,54.1,30.30,East,91,0.0,0.0,94,0.00,,,0.01,Wunderground v.1.15,2013-09-16 13:50:00,
2013-09-16 08:55:00,55.8,53.8,30.30,East,94,0.0,0.0,93,0.00,,,0.01,Wunderground v.1.15,2013-09-16 13:55:00,
2013-09-16 09:00:00,55.9,53.9,30.31,East,85,1.0,1.0,93,0.00,,,0.01,Wunderground v.1.15,2013-09-16 14:00:00,
2013-09-16 09:05:00,55.9,53.9,30.31,East,99,1.0,1.0,93,0.00,,,0.01,Wunderground v.1.15,2013-09-16 14:05:00,
2013-09-16 09:14:00,56.2,54.2,30.31,East,90,0.0,0.0,93,0.00,,,0.01,Wunderground v.1.15,2013-09-16 14:14:00,
2013-09-16 09:19:00,56.4,54.1,30.31,ESE,119,1.0,1.0,92,0.00,,,0.01,Wunderground v.1.15,2013-09-16 14:19:00,
2013-09-16 09:25:00,56.4,53.8,30.32,East,87,1.0,1.0,91,0.00,,,0.01,Wunderground v.1.15,2013-09-16 14:25:00,
2013-09-16 09:30:00,56.6,54.0,30.32,East,82,1.0,1.0,91,0.00,,,0.01,Wunderground v.1.15,2013-09-16 14:30:00,
2013-09-16 09:40:00,56.6,53.7,30.32,NE,40,1.0,1.0,90,0.00,,,0.01,Wunderground v.1.15,2013-09-16 14:40:00,
2013-09-16 09:45:00,56.6,53.7,30.32,East,84,1.0,1.0,90,0.00,,,0.01,Wunderground v.1.15,2013-09-16 14:45:00,
2013-09-16 09:50:00,56.7,53.8,30.32,East,83,0.0,0.0,90,0.00,,,0.01,Wunderground v.1.15,2013-09-16 14:50:00,
2013-09-16 09:55:00,57.0,54.1,30.32,East,84,0.0,0.0,90,0.00,,,0.01,Wunderground v.1.15,2013-09-16 14:55:00,
2013-09-16 10:00:00,57.1,53.9,30.32,East,97,0.0,0.0,89,0.00,,,0.01,Wunderground v.1.15,2013-09-16 15:00:00,
2013-09-16 10:09:00,57.0,53.8,30.32,East,97,0.0,0.0,89,0.00,,,0.01,Wunderground v.1.15,2013-09-16 15:09:00,
2013-09-16 10:15:00,57.2,54.0,30.33,East,87,0.0,0.0,89,0.00,,,0.01,Wunderground v.1.15,2013-09-16 15:15:00,
2013-09-16 10:20:00,57.2,54.0,30.33,NE,55,0.0,0.0,89,0.00,,,0.01,Wunderground v.1.15,2013-09-16 15:20:00,
2013-09-16 10:25:00,57.2,54.0,30.33,East,86,0.0,0.0,89,0.00,,,0.01,Wunderground v.1.15,2013-09-16 15:25:00,
2013-09-16 10:30:00,57.1,53.9,30.33,East,85,1.0,5.0,89,0.00,,,0.01,Wunderground v.1.15,2013-09-16 15:30:00,
2013-09-16 10:35:00,56.9,53.7,30.33,East,101,1.0,5.0,89,0.00,,,0.01,Wunderground v.1.15,2013-09-16 15:35:00,
2013-09-16 10:40:00,56.9,53.7,30.33,ESE,103,0.0,0.0,89,0.00,,,0.01,Wunderground v.1.15,2013-09-16 15:40:00,
2013-09-16 10:50:00,57.1,53.9,30.33,East,93,0.0,0.0,89,0.00,,,0.01,Wunderground v.1.15,2013-09-16 15:50:00,
2013-09-16 10:55:00,57.3,53.8,30.33,East,88,0.0,0.0,88,0.00,,,0.01,Wunderground v.1.15,2013-09-16 15:55:00,
2013-09-16 11:04:00,57.3,53.8,30.33,East,93,0.0,0.0,88,0.00,,,0.01,Wunderground v.1.15,2013-09-16 16:04:00,
2013-09-16 11:09:00,57.5,53.7,30.33,East,93,0.0,0.0,87,0.00,,,0.01,Wunderground v.1.15,2013-09-16 16:09:00,
2013-09-16 11:15:00,57.6,53.8,30.34,ENE,69,0.0,0.0,87,0.00,,,0.01,Wunderground v.1.15,2013-09-16 16:15:00,
2013-09-16 11:20:00,57.6,53.8,30.34,ESE,106,0.0,0.0,87,0.00,,,0.01,Wunderground v.1.15,2013-09-16 16:20:00,
2013-09-16 11:25:00,57.7,53.9,30.34,SE,132,0.0,0.0,87,0.00,,,0.01,Wunderground v.1.15,2013-09-16 16:25:00,
2013-09-16 11:30:00,57.8,54.0,30.34,East,93,0.0,0.0,87,0.00,,,0.01,Wunderground v.1.15,2013-09-16 16:30:00,
2013-09-16 11:35:00,57.8,54.0,30.34,East,92,0.0,0.0,87,0.00,,,0.01,Wunderground v.1.15,2013-09-16 16:35:00,
2013-09-16 11:40:00,57.8,53.6,30.34,East,96,0.0,0.0,86,0.00,,,0.01,Wunderground v.1.15,2013-09-16 16:40:00,
2013-09-16 11:49:00,57.8,53.6,30.34,ESE,107,0.0,0.0,86,0.00,,,0.01,Wunderground v.1.15,2013-09-16 16:49:00,
2013-09-16 11:54:00,58.0,53.8,30.34,East,91,0.0,0.0,86,0.00,,,0.01,Wunderground v.1.15,2013-09-16 16:54:00,
2013-09-16 12:04:00,58.2,53.7,30.34,ESE,113,0.0,0.0,85,0.00,,,0.01,Wunderground v.1.15,2013-09-16 17:04:00,
2013-09-16 12:09:00,58.4,53.9,30.34,East,90,0.0,0.0,85,0.00,,,0.01,Wunderground v.1.15,2013-09-16 17:09:00,
2013-09-16 12:15:00,58.5,54.0,30.34,ESE,117,0.0,0.0,85,0.00,,,0.01,Wunderground v.1.15,2013-09-16 17:15:00,
2013-09-16 12:20:00,58.5,53.7,30.34,ENE,73,0.0,0.0,84,0.00,,,0.01,Wunderground v.1.15,2013-09-16 17:20:00,
2013-09-16 12:25:00,58.5,53.7,30.33,ENE,78,0.0,0.0,84,0.00,,,0.01,Wunderground v.1.15,2013-09-16 17:25:00,
2013-09-16 12:30:00,58.5,53.7,30.33,SE,133,0.0,0.0,84,0.00,,,0.01,Wunderground v.1.15,2013-09-16 17:30:00,
2013-09-16 12:35:00,58.5,53.7,30.33,East,99,0.0,0.0,84,0.00,,,0.01,Wunderground v.1.15,2013-09-16 17:35:00,
2013-09-16 12:44:00,58.7,53.9,30.33,East,82,1.0,1.0,84,0.00,,,0.01,Wunderground v.1.15,2013-09-16 17:44:00,
2013-09-16 12:49:00,59.0,54.2,30.33,East,91,0.0,0.0,84,0.00,,,0.01,Wunderground v.1.15,2013-09-16 17:49:00,
2013-09-16 12:55:00,59.3,54.5,30.33,East,87,0.0,0.0,84,0.00,,,0.01,Wunderground v.1.15,2013-09-16 17:55:00,
2013-09-16 13:00:00,59.6,54.1,30.33,East,83,1.0,1.0,82,0.00,,,0.01,Wunderground v.1.15,2013-09-16 18:00:00,
2013-09-16 13:05:00,59.8,54.3,30.33,ENE,74,0.0,5.0,82,0.00,,,0.01,Wunderground v.1.15,2013-09-16 18:05:00,
2013-09-16 13:10:00,59.8,54.3,30.33,East,94,0.0,3.0,82,0.00,,,0.01,Wunderground v.1.15,2013-09-16 18:10:00,
2013-09-16 13:15:00,59.7,54.2,30.33,East,91,1.0,3.0,82,0.00,,,0.01,Wunderground v.1.15,2013-09-16 18:15:00,
2013-09-16 13:20:00,59.9,54.1,30.33,East,96,0.0,0.0,81,0.00,,,0.01,Wunderground v.1.15,2013-09-16 18:20:00,
2013-09-16 13:25:00,60.2,54.3,30.33,East,95,0.0,0.0,81,0.00,,,0.01,Wunderground v.1.15,2013-09-16 18:25:00,
2013-09-16 13:30:00,60.2,54.0,30.33,ENE,78,0.0,0.0,80,0.00,,,0.01,Wunderground v.1.15,2013-09-16 18:30:00,
2013-09-16 13:39:00,60.6,53.3,30.32,ESE,115,0.0,0.0,77,0.00,,,0.01,Wunderground v.1.15,2013-09-16 18:39:00,
2013-09-16 13:44:00,60.9,53.6,30.32,East,88,0.0,0.0,77,0.00,,,0.01,Wunderground v.1.15,2013-09-16 18:44:00,
2013-09-16 13:49:00,61.1,53.5,30.31,SE,131,0.0,0.0,76,0.00,,,0.01,Wunderground v.1.15,2013-09-16 18:49:00,
2013-09-16 13:55:00,61.3,54.0,30.31,East,82,0.0,0.0,77,0.00,,,0.01,Wunderground v.1.15,2013-09-16 18:55:00,
2013-09-16 14:00:00,61.7,54.1,30.31,East,92,0.0,0.0,76,0.00,,,0.01,Wunderground v.1.15,2013-09-16 19:00:00,
2013-09-16 14:05:00,62.0,53.6,30.31,NNE,33,0.0,0.0,74,0.00,,,0.01,Wunderground v.1.15,2013-09-16 19:05:00,
2013-09-16 14:10:00,61.9,53.5,30.31,East,87,2.0,2.0,74,0.00,,,0.01,Wunderground v.1.15,2013-09-16 19:10:00,
2013-09-16 14:15:00,61.6,53.6,30.31,East,95,2.0,2.0,75,0.00,,,0.01,Wunderground v.1.15,2013-09-16 19:15:00,
2013-09-16 14:25:00,62.2,53.8,30.30,NE,53,0.0,0.0,74,0.00,,,0.01,Wunderground v.1.15,2013-09-16 19:25:00,
2013-09-16 14:30:00,62.4,53.6,30.30,ENE,74,0.0,0.0,73,0.00,,,0.01,Wunderground v.1.15,2013-09-16 19:30:00,
2013-09-16 14:39:00,62.3,53.5,30.30,East,85,0.0,0.0,73,0.00,,,0.01,Wunderground v.1.15,2013-09-16 19:39:00,
2013-09-16 14:44:00,62.3,53.2,30.29,East,94,1.0,1.0,72,0.00,,,0.01,Wunderground v.1.15,2013-09-16 19:44:00,
2013-09-16 14:49:00,62.3,53.2,30.29,East,96,0.0,0.0,72,0.00,,,0.01,Wunderground v.1.15,2013-09-16 19:49:00,
2013-09-16 14:55:00,62.4,53.6,30.29,ESE,110,0.0,0.0,73,0.00,,,0.01,Wunderground v.1.15,2013-09-16 19:55:00,
2013-09-16 15:00:00,62.4,52.9,30.29,East,86,0.0,0.0,71,0.00,,,0.01,Wunderground v.1.15,2013-09-16 20:00:00,
2013-09-16 15:05:00,62.5,53.3,30.29,ESE,117,0.0,0.0,72,0.00,,,0.01,Wunderground v.1.15,2013-09-16 20:05:00,
2013-09-16 15:10:00,62.7,53.5,30.29,East,90,0.0,0.0,72,0.00,,,0.01,Wunderground v.1.15,2013-09-16 20:10:00,
2013-09-16 15:19:00,62.7,53.2,30.28,East,91,0.0,6.0,71,0.00,,,0.01,Wunderground v.1.15,2013-09-16 20:19:00,
2013-09-16 15:24:00,62.8,53.3,30.28,East,97,1.0,6.0,71,0.00,,,0.01,Wunderground v.1.15,2013-09-16 20:24:00,
2013-09-16 15:30:00,62.9,53.0,30.28,ESE,103,1.0,1.0,70,0.00,,,0.01,Wunderground v.1.15,2013-09-16 20:30:00,
2013-09-16 15:40:00,62.9,53.4,30.28,East,91,1.0,1.0,71,0.00,,,0.01,Wunderground v.1.15,2013-09-16 20:40:00,
2013-09-16 15:45:00,62.8,53.3,30.27,East,94,0.0,1.0,71,0.00,,,0.01,Wunderground v.1.15,2013-09-16 20:45:00,
2013-09-16 15:50:00,62.7,53.2,30.27,East,80,0.0,0.0,71,0.00,,,0.01,Wunderground v.1.15,2013-09-16 20:50:00,
2013-09-16 15:55:00,62.8,53.3,30.27,East,93,0.0,0.0,71,0.00,,,0.01,Wunderground v.1.15,2013-09-16 20:55:00,
2013-09-16 16:00:00,63.1,53.5,30.26,ESE,103,0.0,0.0,71,0.00,,,0.01,Wunderground v.1.15,2013-09-16 21:00:00,
2013-09-16 16:05:00,63.2,53.6,30.26,ENE,65,0.0,0.0,71,0.00,,,0.01,Wunderground v.1.15,2013-09-16 21:05:00,
2013-09-16 16:10:00,62.9,53.4,30.26,East,90,0.0,0.0,71,0.00,,,0.01,Wunderground v.1.15,2013-09-16 21:10:00,
2013-09-16 16:15:00,62.7,53.2,30.26,East,86,0.0,0.0,71,0.00,,,0.01,Wunderground v.1.15,2013-09-16 21:15:00,
2013-09-16 16:24:00,63.1,53.5,30.26,East,86,1.0,1.0,71,0.00,,,0.01,Wunderground v.1.15,2013-09-16 21:24:00,
2013-09-16 16:29:00,64.1,54.1,30.26,SSE,159,1.0,1.0,70,0.00,,,0.01,Wunderground v.1.15,2013-09-16 21:29:00,
2013-09-16 16:35:00,64.3,53.9,30.26,SE,128,0.0,1.0,69,0.00,,,0.01,Wunderground v.1.15,2013-09-16 21:35:00,
2013-09-16 16:40:00,63.9,53.9,30.26,East,88,1.0,1.0,70,0.00,,,0.01,Wunderground v.1.15,2013-09-16 21:40:00,
2013-09-16 16:45:00,63.8,53.4,30.25,East,88,1.0,1.0,69,0.00,,,0.01,Wunderground v.1.15,2013-09-16 21:45:00,
2013-09-16 16:50:00,63.7,53.3,30.25,ESE,109,0.0,0.0,69,0.00,,,0.01,Wunderground v.1.15,2013-09-16 21:50:00,
2013-09-16 16:55:00,63.5,53.5,30.25,East,86,1.0,1.0,70,0.00,,,0.01,Wunderground v.1.15,2013-09-16 21:55:00,
2013-09-16 17:00:00,63.2,53.6,30.25,ENE,65,1.0,1.0,71,0.00,,,0.01,Wunderground v.1.15,2013-09-16 22:00:00,
2013-09-16 17:05:00,62.8,54.0,30.25,ESE,110,1.0,1.0,73,0.00,,,0.01,Wunderground v.1.15,2013-09-16 22:05:00,
2013-09-16 17:10:00,62.5,53.7,30.25,ESE,119,1.0,3.0,73,0.00,,,0.01,Wunderground v.1.15,2013-09-16 22:10:00,
2013-09-16 17:15:00,62.5,53.7,30.25,SSE,153,1.0,3.0,73,0.00,,,0.01,Wunderground v.1.15,2013-09-16 22:15:00,
2013-09-16 17:20:00,62.5,53.7,30.25,ESE,105,0.0,0.0,73,0.00,,,0.01,Wunderground v.1.15,2013-09-16 22:20:00,
2013-09-16 17:25:00,62.5,53.3,30.25,East,98,0.0,0.0,72,0.00,,,0.01,Wunderground v.1.15,2013-09-16 22:25:00,
2013-09-16 17:34:00,62.2,53.8,30.25,ESE,102,1.0,1.0,74,0.00,,,0.01,Wunderground v.1.15,2013-09-16 22:34:00,
2013-09-16 17:39:00,62.4,54.0,30.25,ESE,118,0.0,0.0,74,0.00,,,0.01,Wunderground v.1.15,2013-09-16 22:39:00,
2013-09-16 17:45:00,62.4,53.6,30.25,SE,138,0.0,0.0,73,0.00,,,0.01,Wunderground v.1.15,2013-09-16 22:45:00,
2013-09-16 17:49:00,62.0,53.6,30.25,East,79,1.0,1.0,74,0.00,,,0.01,Wunderground v.1.15,2013-09-16 22:49:00,
2013-09-16 17:59:00,61.5,53.1,30.25,East,85,0.0,0.0,74,0.00,,,0.01,Wunderground v.1.15,2013-09-16 22:59:00,
2013-09-16 18:05:00,61.2,52.5,30.25,East,101,1.0,1.0,73,0.00,,,0.01,Wunderground v.1.15,2013-09-16 23:05:00,
2013-09-16 18:10:00,61.1,52.4,30.25,SSE,155,1.0,1.0,73,0.00,,,0.01,Wunderground v.1.15,2013-09-16 23:10:00,
2013-09-16 18:15:00,60.9,52.6,30.25,ESE,102,0.0,1.0,74,0.00,,,0.01,Wunderground v.1.15,2013-09-16 23:15:00,
2013-09-16 18:20:00,60.8,52.5,30.25,East,84,0.0,0.0,74,0.00,,,0.01,Wunderground v.1.15,2013-09-16 23:20:00,
2013-09-16 18:25:00,60.7,52.7,30.24,ESE,115,0.0,0.0,75,0.00,,,0.01,Wunderground v.1.15,2013-09-16 23:25:00,
2013-09-16 18:30:00,60.6,52.6,30.25,ESE,113,0.0,0.0,75,0.00,,,0.01,Wunderground v.1.15,2013-09-16 23:30:00,
2013-09-16 18:40:00,60.4,52.8,30.24,ESE,102,0.0,0.0,76,0.00,,,0.01,Wunderground v.1.15,2013-09-16 23:40:00,
2013-09-16 18:49:00,60.1,52.5,30.24,ESE,103,0.0,0.0,76,0.00,,,0.01,Wunderground v.1.15,2013-09-16 23:49:00,
2013-09-16 18:54:00,60.0,52.8,30.24,ESE,103,0.0,0.0,77,0.00,,,0.01,Wunderground v.1.15,2013-09-16 23:54:00,
2013-09-16 19:00:00,59.9,52.7,30.24,ESE,103,0.0,0.0,77,0.00,,,0.01,Wunderground v.1.15,2013-09-17 00:00:00,
2013-09-16 19:10:00,59.5,52.6,30.23,ESE,103,0.0,0.0,78,0.00,,,0.01,Wunderground v.1.15,2013-09-17 00:10:00,
2013-09-16 19:15:00,59.4,52.5,30.23,ESE,103,0.0,0.0,78,0.00,,,0.01,Wunderground v.1.15,2013-09-17 00:15:00,
2013-09-16 19:20:00,59.3,52.8,30.23,ESE,103,0.0,0.0,79,0.00,,,0.01,Wunderground v.1.15,2013-09-17 00:20:00,
2013-09-16 19:25:00,59.1,52.6,30.23,ESE,103,0.0,0.0,79,0.00,,,0.01,Wunderground v.1.15,2013-09-17 00:25:00,
2013-09-16 19:34:00,58.6,52.4,30.23,ESE,103,0.0,0.0,80,0.00,,,0.01,Wunderground v.1.15,2013-09-17 00:34:00,
2013-09-16 19:39:00,58.5,52.7,30.22,ESE,103,0.0,0.0,81,0.00,,,0.01,Wunderground v.1.15,2013-09-17 00:39:00,
2013-09-16 19:44:00,58.5,52.7,30.23,ESE,103,0.0,0.0,81,0.00,,,0.01,Wunderground v.1.15,2013-09-17 00:44:00,
2013-09-16 19:50:00,58.5,52.7,30.22,ESE,103,0.0,0.0,81,0.00,,,0.01,Wunderground v.1.15,2013-09-17 00:50:00,
2013-09-16 19:55:00,58.3,52.8,30.23,ESE,103,0.0,0.0,82,0.00,,,0.01,Wunderground v.1.15,2013-09-17 00:55:00,
2013-09-16 20:00:00,58.1,52.6,30.23,ESE,103,0.0,0.0,82,0.00,,,0.01,Wunderground v.1.15,2013-09-17 01:00:00,
2013-09-16 20:05:00,57.9,52.8,30.22,ESE,103,0.0,0.0,83,0.00,,,0.01,Wunderground v.1.15,2013-09-17 01:05:00,
2013-09-16 20:10:00,57.7,52.6,30.22,ESE,103,0.0,0.0,83,0.00,,,0.01,Wunderground v.1.15,2013-09-17 01:10:00,
2013-09-16 20:20:00,57.4,52.6,30.23,ESE,103,0.0,0.0,84,0.00,,,0.01,Wunderground v.1.15,2013-09-17 01:20:00,
2013-09-16 20:29:00,57.3,52.5,30.23,ESE,103,0.0,0.0,84,0.00,,,0.01,Wunderground v.1.15,2013-09-17 01:29:00,
2013-09-16 20:34:00,57.2,52.4,30.23,ESE,103,0.0,0.0,84,0.00,,,0.01,Wunderground v.1.15,2013-09-17 01:34:00,
2013-09-16 20:39:00,57.1,52.3,30.23,ESE,103,0.0,0.0,84,0.00,,,0.01,Wunderground v.1.15,2013-09-17 01:39:00,
2013-09-16 20:45:00,57.1,52.6,30.23,ESE,103,0.0,0.0,85,0.00,,,0.01,Wunderground v.1.15,2013-09-17 01:45:00,
2013-09-16 20:50:00,57.0,52.5,30.23,ESE,103,0.0,0.0,85,0.00,,,0.01,Wunderground v.1.15,2013-09-17 01:50:00,
2013-09-16 20:55:00,56.9,52.4,30.23,ESE,103,0.0,0.0,85,0.00,,,0.01,Wunderground v.1.15,2013-09-17 01:55:00,
2013-09-16 21:00:00,56.8,52.3,30.23,ESE,103,0.0,0.0,85,0.00,,,0.01,Wunderground v.1.15,2013-09-17 02:00:00,
2013-09-16 21:05:00,56.7,52.2,30.23,ESE,103,0.0,0.0,85,0.00,,,0.01,Wunderground v.1.15,2013-09-17 02:05:00,
2013-09-16 21:10:00,56.5,52.0,30.23,ESE,103,0.0,0.0,85,0.00,,,0.01,Wunderground v.1.15,2013-09-17 02:10:00,
2013-09-16 21:19:00,56.4,52.3,30.23,ESE,103,0.0,0.0,86,0.00,,,0.01,Wunderground v.1.15,2013-09-17 02:19:00,
2013-09-16 21:24:00,56.3,52.2,30.23,ESE,103,0.0,0.0,86,0.00,,,0.01,Wunderground v.1.15,2013-09-17 02:24:00,
2013-09-16 21:34:00,56.1,52.0,30.23,ESE,103,0.0,0.0,86,0.00,,,0.01,Wunderground v.1.15,2013-09-17 02:34:00,
2013-09-16 21:40:00,55.9,51.8,30.23,ESE,103,0.0,0.0,86,0.00,,,0.01,Wunderground v.1.15,2013-09-17 02:40:00,
2013-09-16 21:45:00,55.7,51.9,30.23,ESE,103,0.0,0.0,87,0.00,,,0.01,Wunderground v.1.15,2013-09-17 02:45:00,
2013-09-16 21:50:00,55.6,51.8,30.23,ESE,103,0.0,0.0,87,0.00,,,0.01,Wunderground v.1.15,2013-09-17 02:50:00,
2013-09-16 21:55:00,55.4,51.6,30.23,ESE,103,0.0,0.0,87,0.00,,,0.01,Wunderground v.1.15,2013-09-17 02:55:00,
2013-09-16 22:00:00,55.3,51.8,30.23,ESE,103,0.0,0.0,88,0.00,,,0.01,Wunderground v.1.15,2013-09-17 03:00:00,
2013-09-16 22:05:00,55.1,51.6,30.23,ESE,103,0.0,0.0,88,0.00,,,0.01,Wunderground v.1.15,2013-09-17 03:05:00,
2013-09-16 22:14:00,54.8,51.6,30.23,ESE,103,0.0,0.0,89,0.00,,,0.01,Wunderground v.1.15,2013-09-17 03:14:00,
2013-09-16 22:19:00,54.7,51.5,30.23,ESE,103,0.0,0.0,89,0.00,,,0.01,Wunderground v.1.15,2013-09-17 03:19:00,
2013-09-16 22:25:00,54.6,51.4,30.23,ESE,103,0.0,0.0,89,0.00,,,0.01,Wunderground v.1.15,2013-09-17 03:25:00,
2013-09-16 22:30:00,54.6,51.4,30.23,ESE,103,0.0,0.0,89,0.00,,,0.01,Wunderground v.1.15,2013-09-17 03:30:00,
2013-09-16 22:35:00,54.6,51.7,30.23,ESE,103,0.0,0.0,90,0.00,,,0.01,Wunderground v.1.15,2013-09-17 03:35:00,
2013-09-16 22:45:00,54.4,51.5,30.24,ESE,103,0.0,0.0,90,0.00,,,0.01,Wunderground v.1.15,2013-09-17 03:45:00,
2013-09-16 22:50:00,54.5,51.6,30.24,ESE,103,0.0,0.0,90,0.00,,,0.01,Wunderground v.1.15,2013-09-17 03:50:00,
2013-09-16 22:55:00,54.5,51.6,30.24,ESE,103,0.0,0.0,90,0.00,,,0.01,Wunderground v.1.15,2013-09-17 03:55:00,
2013-09-16 23:00:00,54.4,51.5,30.24,ESE,103,0.0,0.0,90,0.00,,,0.01,Wunderground v.1.15,2013-09-17 04:00:00,
2013-09-16 23:05:00,54.4,51.5,30.24,ESE,103,0.0,0.0,90,0.00,,,0.01,Wunderground v.1.15,2013-09-17 04:05:00,
2013-09-16 23:09:00,54.3,51.4,30.24,ESE,103,0.0,0.0,90,0.00,,,0.01,Wunderground v.1.15,2013-09-17 04:09:00,
2013-09-16 23:14:00,54.3,51.4,30.24,ESE,103,0.0,0.0,90,0.00,,,0.01,Wunderground v.1.15,2013-09-17 04:14:00,
2013-09-16 23:19:00,54.2,51.3,30.24,ESE,103,0.0,0.0,90,0.00,,,0.01,Wunderground v.1.15,2013-09-17 04:19:00,
2013-09-16 23:24:00,54.1,51.2,30.24,ESE,103,0.0,0.0,90,0.00,,,0.01,Wunderground v.1.15,2013-09-17 04:24:00,
2013-09-16 23:30:00,54.0,51.1,30.24,ESE,103,0.0,0.0,90,0.00,,,0.01,Wunderground v.1.15,2013-09-17 04:30:00,
2013-09-16 23:35:00,53.9,51.0,30.24,ESE,103,0.0,0.0,90,0.00,,,0.01,Wunderground v.1.15,2013-09-17 04:35:00,
2013-09-16 23:40:00,53.8,51.2,30.24,ESE,103,0.0,0.0,91,0.00,,,0.01,Wunderground v.1.15,2013-09-17 04:40:00,
2013-09-16 23:45:00,53.8,51.2,30.24,ESE,103,0.0,0.0,91,0.00,,,0.01,Wunderground v.1.15,2013-09-17 04:45:00,
2013-09-16 23:50:00,53.9,51.3,30.24,ESE,103,0.0,0.0,91,0.00,,,0.01,Wunderground v.1.15,2013-09-17 04:50:00,
2013-09-16 23:55:00,54.0,51.4,30.24,ESE,103,0.0,0.0,91,0.00,,,0.01,Wunderground v.1.15,2013-09-17 04:55:00,